createdAt,value
2023-02-17T00:00:40.601Z,67.30
2023-02-17T00:01:55.139Z,65.70
2023-02-17T00:02:58.892Z,63.80
2023-02-17T00:04:02.202Z,63.90
2023-02-17T00:05:06.819Z,61.30
2023-02-17T00:06:11.456Z,57.10
2023-02-17T00:07:14.381Z,63.80
2023-02-17T00:08:17.312Z,67.20
2023-02-17T00:09:20.428Z,65.30
2023-02-17T00:10:23.209Z,63.10
2023-02-17T00:11:28.398Z,58.60
2023-02-17T00:12:31.450Z,60.00
2023-02-17T00:13:34.608Z,60.50
2023-02-17T00:14:40.138Z,62.70
2023-02-17T00:15:43.067Z,62.20
2023-02-17T00:16:46.176Z,60.60
2023-02-17T00:17:49.068Z,61.90
2023-02-17T00:18:58.350Z,59.40
2023-02-17T00:20:01.442Z,59.00
2023-02-17T00:21:15.663Z,59.00
2023-02-17T00:22:18.707Z,61.20
2023-02-17T00:23:21.615Z,63.00
2023-02-17T00:24:26.150Z,57.90
2023-02-17T00:25:29.282Z,58.00
2023-02-17T00:26:32.232Z,56.20
2023-02-17T00:27:35.366Z,56.90
2023-02-17T00:28:38.425Z,56.50
2023-02-17T00:29:41.393Z,58.30
2023-02-17T00:30:44.509Z,60.00
2023-02-17T00:31:48.134Z,59.40
2023-02-17T00:32:52.409Z,59.90
2023-02-17T00:33:56.666Z,62.00
2023-02-17T00:34:59.653Z,61.20
2023-02-17T00:36:07.928Z,59.60
2023-02-17T00:37:11.274Z,56.80
2023-02-17T00:38:14.389Z,58.20
2023-02-17T00:39:17.934Z,59.60
2023-02-17T00:40:21.500Z,57.80
2023-02-17T00:41:28.894Z,55.90
2023-02-17T00:42:33.810Z,60.70
2023-02-17T00:43:36.794Z,60.30
2023-02-17T00:44:39.842Z,57.00
2023-02-17T00:45:42.794Z,57.20
2023-02-17T00:46:47.034Z,54.90
2023-02-17T00:47:50.031Z,55.50
2023-02-17T00:48:53.622Z,54.30
2023-02-17T00:49:57.072Z,57.50
2023-02-17T00:51:02.625Z,56.40
2023-02-17T00:52:05.612Z,53.10
2023-02-17T00:53:09.931Z,51.80
2023-02-17T00:54:14.758Z,51.40
2023-02-17T00:55:18.214Z,54.30
2023-02-17T00:56:21.083Z,51.10
2023-02-17T00:57:24.851Z,53.20
2023-02-17T00:58:27.953Z,53.10
2023-02-17T00:59:31.110Z,51.70
2023-02-17T01:00:34.100Z,50.70
2023-02-17T01:01:38.400Z,51.50
2023-02-17T01:02:41.505Z,48.90
2023-02-17T01:03:44.519Z,48.60
2023-02-17T01:04:47.853Z,48.90
2023-02-17T01:05:51.970Z,48.80
2023-02-17T01:06:55.027Z,47.90
2023-02-17T01:07:59.880Z,47.50
2023-02-17T01:09:06.725Z,47.20
2023-02-17T01:10:10.383Z,45.20
2023-02-17T01:11:18.811Z,44.20
2023-02-17T01:12:22.333Z,49.00
2023-02-17T01:13:25.735Z,48.20
2023-02-17T01:14:28.665Z,44.80
2023-02-17T01:15:33.176Z,43.10
2023-02-17T01:16:39.355Z,44.80
2023-02-17T01:17:42.478Z,43.90
2023-02-17T01:18:45.753Z,41.30
2023-02-17T01:19:48.735Z,45.00
2023-02-17T01:20:52.734Z,40.90
2023-02-17T01:21:55.677Z,43.80
2023-02-17T01:22:58.531Z,41.60
2023-02-17T01:24:04.685Z,41.50
2023-02-17T01:25:08.288Z,44.50
2023-02-17T01:26:18.889Z,40.60
2023-02-17T01:27:21.845Z,39.60
2023-02-17T01:28:24.822Z,37.80
2023-02-17T01:29:28.736Z,42.80
2023-02-17T01:30:32.162Z,36.00
2023-02-17T01:31:36.081Z,38.10
2023-02-17T01:32:39.062Z,36.00
2023-02-17T01:33:41.989Z,38.70
2023-02-17T01:34:45.259Z,38.50
2023-02-17T01:35:48.319Z,35.70
2023-02-17T01:36:51.516Z,33.60
2023-02-17T01:37:54.437Z,35.50
2023-02-17T01:39:00.128Z,33.50
2023-02-17T01:40:04.282Z,34.10
2023-02-17T01:41:09.613Z,33.40
2023-02-17T01:42:20.120Z,32.80
2023-02-17T01:43:25.085Z,33.40
2023-02-17T01:44:32.187Z,32.70
2023-02-17T01:45:41.614Z,35.40
2023-02-17T01:46:52.767Z,30.30
2023-02-17T01:48:02.093Z,31.10
2023-02-17T01:49:15.590Z,33.30
2023-02-17T01:50:22.599Z,30.30
2023-02-17T01:51:30.562Z,31.70
2023-02-17T01:52:33.540Z,32.60
2023-02-17T01:53:48.692Z,33.80
2023-02-17T01:55:07.001Z,30.10
2023-02-17T01:56:11.925Z,29.20
2023-02-17T01:57:18.219Z,29.50
2023-02-17T01:58:24.883Z,27.20
2023-02-17T01:59:29.931Z,29.40
2023-02-17T02:00:34.941Z,29.60
2023-02-17T02:01:39.233Z,29.50
2023-02-17T02:02:46.144Z,27.60
2023-02-17T02:03:52.251Z,28.40
2023-02-17T02:04:55.671Z,28.10
2023-02-17T02:06:00.932Z,30.10
2023-02-17T02:07:10.688Z,27.50
2023-02-17T02:08:15.039Z,26.70
2023-02-17T02:09:22.355Z,26.20
2023-02-17T02:10:25.604Z,26.40
2023-02-17T02:11:28.986Z,25.60
2023-02-17T02:12:35.484Z,26.30
2023-02-17T02:13:38.412Z,25.30
2023-02-17T02:14:41.313Z,25.60
2023-02-17T02:15:54.175Z,26.50
2023-02-17T02:17:29.018Z,29.00
2023-02-17T02:19:02.141Z,27.90
2023-02-17T02:20:10.919Z,25.20
2023-02-17T02:21:45.658Z,23.50
2023-02-17T02:22:52.708Z,24.00
2023-02-17T02:24:19.232Z,24.50
2023-02-17T02:25:50.517Z,24.20
2023-02-17T02:27:09.931Z,24.50
2023-02-17T02:28:40.153Z,24.80
2023-02-17T02:29:55.229Z,29.00
2023-02-17T02:31:50.274Z,23.60
2023-02-17T02:33:18.688Z,23.50
2023-02-17T02:34:37.136Z,22.90
2023-02-17T02:35:59.962Z,23.00
2023-02-17T02:37:13.080Z,22.30
2023-02-17T02:38:45.858Z,22.00
2023-02-17T02:39:52.680Z,22.40
2023-02-17T02:41:17.925Z,23.00
2023-02-17T02:42:25.044Z,23.10
2023-02-17T02:43:30.114Z,23.70
2023-02-17T02:44:33.098Z,22.60
2023-02-17T02:45:36.153Z,22.40
2023-02-17T02:46:39.235Z,22.10
2023-02-17T02:47:53.510Z,23.20
2023-02-17T02:49:00.688Z,22.60
2023-02-17T02:50:03.825Z,21.90
2023-02-17T02:51:19.048Z,23.00
2023-02-17T02:52:51.418Z,21.40
2023-02-17T02:54:08.691Z,21.70
2023-02-17T02:55:18.078Z,21.50
2023-02-17T02:56:52.576Z,22.00
2023-02-17T02:58:43.225Z,24.60
2023-02-17T02:59:57.060Z,22.30
2023-02-17T03:01:29.625Z,20.50
2023-02-17T03:02:48.274Z,22.90
2023-02-17T03:04:26.670Z,22.60
2023-02-17T03:05:53.444Z,21.50
2023-02-17T03:07:05.931Z,23.20
2023-02-17T03:08:14.331Z,21.50
2023-02-17T03:09:21.503Z,21.60
2023-02-17T03:10:24.643Z,21.90
2023-02-17T03:11:33.903Z,22.20
2023-02-17T03:12:39.099Z,21.80
2023-02-17T03:13:42.603Z,21.60
2023-02-17T03:14:50.164Z,21.70
2023-02-17T03:15:53.431Z,20.20
2023-02-17T03:16:56.525Z,21.70
2023-02-17T03:18:02.869Z,22.20
2023-02-17T03:19:06.914Z,23.30
2023-02-17T03:20:11.005Z,22.40
2023-02-17T03:21:17.506Z,22.60
2023-02-17T03:22:31.753Z,23.00
2023-02-17T03:23:34.901Z,23.40
2023-02-17T03:24:37.882Z,24.10
2023-02-17T03:25:45.028Z,22.80
2023-02-17T03:26:48.991Z,23.70
2023-02-17T03:27:53.277Z,24.10
2023-02-17T03:28:56.559Z,23.70
2023-02-17T03:29:59.557Z,24.80
2023-02-17T03:31:02.710Z,23.90
2023-02-17T03:32:06.741Z,26.00
2023-02-17T03:33:09.792Z,25.20
2023-02-17T03:34:12.948Z,24.50
2023-02-17T03:35:15.921Z,26.60
2023-02-17T03:36:18.914Z,25.80
2023-02-17T03:37:22.627Z,24.90
2023-02-17T03:38:25.607Z,25.40
2023-02-17T03:39:28.771Z,25.80
2023-02-17T03:40:31.670Z,25.60
2023-02-17T03:41:34.728Z,27.20
2023-02-17T03:42:37.652Z,26.50
2023-02-17T03:43:40.638Z,26.10
2023-02-17T03:44:43.740Z,26.70
2023-02-17T03:45:46.771Z,27.00
2023-02-17T03:46:49.830Z,27.80
2023-02-17T03:47:52.746Z,27.10
2023-02-17T03:48:55.718Z,28.40
2023-02-17T03:49:58.735Z,25.60
2023-02-17T03:51:14.436Z,27.00
2023-02-17T03:52:18.017Z,28.40
2023-02-17T03:53:21.056Z,26.60
2023-02-17T03:54:23.954Z,26.20
2023-02-17T03:55:27.244Z,26.60
2023-02-17T03:56:30.238Z,27.40
2023-02-17T03:57:34.784Z,27.70
2023-02-17T03:58:38.960Z,27.10
2023-02-17T03:59:42.049Z,27.30
2023-02-17T04:00:45.212Z,27.90
2023-02-17T04:01:48.244Z,27.30
2023-02-17T04:02:51.262Z,29.60
2023-02-17T04:03:54.339Z,27.80
2023-02-17T04:04:57.314Z,27.70
2023-02-17T04:06:00.517Z,28.10
2023-02-17T04:07:03.596Z,29.00
2023-02-17T04:08:06.492Z,29.70
2023-02-17T04:09:09.476Z,28.30
2023-02-17T04:10:12.380Z,30.90
2023-02-17T04:11:15.657Z,28.80
2023-02-17T04:12:18.565Z,28.40
2023-02-17T04:13:22.308Z,27.30
2023-02-17T04:14:25.246Z,29.50
2023-02-17T04:15:30.008Z,29.70
2023-02-17T04:16:33.279Z,28.60
2023-02-17T04:17:37.654Z,29.30
2023-02-17T04:18:40.704Z,29.30
2023-02-17T04:19:43.590Z,29.00
2023-02-17T04:20:49.571Z,29.30
2023-02-17T04:21:52.881Z,30.30
2023-02-17T04:22:55.797Z,27.70
2023-02-17T04:24:01.974Z,29.40
2023-02-17T04:25:05.140Z,29.20
2023-02-17T04:26:09.136Z,30.00
2023-02-17T04:27:12.338Z,30.30
2023-02-17T04:28:16.406Z,28.60
2023-02-17T04:29:19.365Z,27.70
2023-02-17T04:30:22.269Z,27.90
2023-02-17T04:31:26.129Z,28.60
2023-02-17T04:32:29.345Z,30.30
2023-02-17T04:33:32.553Z,30.20
2023-02-17T04:34:35.493Z,29.70
2023-02-17T04:35:38.875Z,30.50
2023-02-17T04:36:44.194Z,27.60
2023-02-17T04:37:47.440Z,29.60
2023-02-17T04:38:50.333Z,29.00
2023-02-17T04:39:53.192Z,29.90
2023-02-17T04:40:57.335Z,30.10
2023-02-17T04:42:00.266Z,30.30
2023-02-17T04:43:04.327Z,32.10
2023-02-17T04:44:07.365Z,29.50
2023-02-17T04:45:11.225Z,29.50
2023-02-17T04:46:14.320Z,29.20
2023-02-17T04:47:17.442Z,30.90
2023-02-17T04:48:20.549Z,29.40
2023-02-17T04:49:23.515Z,28.70
2023-02-17T04:50:26.838Z,30.60
2023-02-17T04:51:29.766Z,29.40
2023-02-17T04:52:32.823Z,31.90
2023-02-17T04:53:36.262Z,30.50
2023-02-17T04:54:39.154Z,30.20
2023-02-17T04:55:42.331Z,30.60
2023-02-17T04:56:45.322Z,30.00
2023-02-17T04:57:48.176Z,30.80
2023-02-17T04:58:51.452Z,30.20
2023-02-17T04:59:54.344Z,32.50
2023-02-17T05:00:59.228Z,31.10
2023-02-17T05:02:02.322Z,31.30
2023-02-17T05:03:05.328Z,32.50
2023-02-17T05:04:08.751Z,31.20
2023-02-17T05:05:15.297Z,30.00
2023-02-17T05:06:18.316Z,28.50
2023-02-17T05:07:21.328Z,29.30
2023-02-17T05:08:24.715Z,31.40
2023-02-17T05:09:28.168Z,29.80
2023-02-17T05:10:31.361Z,30.70
2023-02-17T05:11:34.383Z,32.10
2023-02-17T05:12:37.350Z,32.00
2023-02-17T05:13:40.240Z,29.30
2023-02-17T05:14:43.485Z,30.20
2023-02-17T05:15:47.142Z,29.50
2023-02-17T05:16:50.130Z,29.80
2023-02-17T05:17:53.047Z,30.30
2023-02-17T05:18:57.118Z,31.20
2023-02-17T05:20:01.278Z,30.00
2023-02-17T05:21:04.435Z,31.50
2023-02-17T05:22:07.406Z,28.90
2023-02-17T05:23:10.436Z,31.10
2023-02-17T05:24:13.348Z,30.20
2023-02-17T05:25:16.588Z,30.60
2023-02-17T05:26:19.495Z,30.30
2023-02-17T05:27:22.671Z,30.60
2023-02-17T05:28:25.921Z,31.40
2023-02-17T05:29:28.871Z,29.70
2023-02-17T05:30:32.034Z,29.80
2023-02-17T05:31:35.079Z,30.40
2023-02-17T05:32:38.057Z,32.50
2023-02-17T05:33:41.019Z,30.40
2023-02-17T05:34:44.388Z,31.70
2023-02-17T05:35:47.696Z,30.60
2023-02-17T05:36:50.675Z,31.30
2023-02-17T05:37:53.799Z,31.40
2023-02-17T05:38:56.816Z,31.40
2023-02-17T05:39:59.700Z,29.80
2023-02-17T05:41:03.326Z,31.80
2023-02-17T05:42:06.236Z,30.10
2023-02-17T05:43:09.060Z,30.20
2023-02-17T05:44:11.893Z,30.10
2023-02-17T05:45:14.841Z,29.80
2023-02-17T05:46:18.094Z,33.40
2023-02-17T05:47:22.133Z,30.50
2023-02-17T05:48:25.056Z,31.30
2023-02-17T05:49:28.037Z,30.80
2023-02-17T05:50:31.053Z,30.20
2023-02-17T05:51:39.107Z,30.60
2023-02-17T05:52:42.030Z,30.70
2023-02-17T05:53:45.269Z,32.50
2023-02-17T05:54:48.106Z,30.90
2023-02-17T05:55:50.998Z,29.90
2023-02-17T05:56:54.208Z,30.40
2023-02-17T05:57:57.194Z,30.40
2023-02-17T05:59:00.708Z,32.10
2023-02-17T06:00:04.978Z,32.80
2023-02-17T06:01:15.176Z,33.00
2023-02-17T06:02:18.490Z,32.80
2023-02-17T06:03:21.444Z,34.70
2023-02-17T06:04:24.509Z,32.20
2023-02-17T06:05:27.565Z,33.60
2023-02-17T06:06:30.499Z,36.70
2023-02-17T06:07:34.095Z,34.10
2023-02-17T06:08:37.508Z,33.30
2023-02-17T06:09:40.433Z,35.60
2023-02-17T06:10:43.697Z,34.50
2023-02-17T06:11:46.613Z,33.70
2023-02-17T06:12:50.014Z,33.40
2023-02-17T06:13:52.966Z,34.50
2023-02-17T06:14:55.982Z,34.50
2023-02-17T06:15:59.062Z,34.40
2023-02-17T06:17:04.098Z,36.10
2023-02-17T06:18:07.344Z,34.40
2023-02-17T06:19:10.366Z,38.80
2023-02-17T06:20:13.442Z,37.10
2023-02-17T06:21:16.573Z,37.70
2023-02-17T06:22:19.537Z,34.50
2023-02-17T06:23:24.407Z,36.20
2023-02-17T06:24:27.482Z,34.60
2023-02-17T06:25:31.386Z,38.10
2023-02-17T06:26:34.509Z,37.30
2023-02-17T06:27:37.391Z,36.90
2023-02-17T06:28:40.715Z,40.10
2023-02-17T06:29:44.561Z,39.10
2023-02-17T06:30:47.486Z,38.80
2023-02-17T06:31:50.626Z,39.40
2023-02-17T06:32:53.658Z,38.50
2023-02-17T06:33:56.703Z,39.20
2023-02-17T06:34:59.581Z,36.90
2023-02-17T06:36:02.722Z,36.10
2023-02-17T06:37:05.705Z,35.30
2023-02-17T06:38:08.662Z,36.90
2023-02-17T06:39:11.842Z,36.70
2023-02-17T06:40:15.180Z,36.60
2023-02-17T06:41:18.047Z,35.60
2023-02-17T06:42:20.946Z,38.00
2023-02-17T06:43:23.824Z,35.50
2023-02-17T06:44:27.315Z,36.50
2023-02-17T06:45:30.246Z,32.60
2023-02-17T06:46:33.259Z,33.90
2023-02-17T06:47:36.687Z,39.30
2023-02-17T06:48:39.624Z,38.30
2023-02-17T06:49:42.929Z,35.80
2023-02-17T06:50:45.920Z,37.30
2023-02-17T06:51:49.023Z,34.70
2023-02-17T06:52:51.940Z,34.00
2023-02-17T06:53:55.753Z,35.50
2023-02-17T06:54:59.019Z,36.60
2023-02-17T06:56:01.939Z,41.10
2023-02-17T06:57:04.833Z,36.00
2023-02-17T06:58:08.491Z,35.20
2023-02-17T06:59:11.538Z,37.80
2023-02-17T07:00:15.200Z,33.00
2023-02-17T07:01:21.089Z,33.00
2023-02-17T07:02:24.405Z,35.20
2023-02-17T07:03:27.421Z,35.40
2023-02-17T07:04:30.396Z,35.00
2023-02-17T07:05:37.065Z,37.70
2023-02-17T07:06:40.088Z,34.90
2023-02-17T07:07:43.080Z,36.70
2023-02-17T07:08:46.016Z,36.50
2023-02-17T07:09:48.937Z,34.40
2023-02-17T07:10:52.163Z,34.70
2023-02-17T07:11:54.982Z,38.90
2023-02-17T07:12:57.866Z,36.20
2023-02-17T07:14:00.929Z,33.20
2023-02-17T07:15:04.368Z,33.90
2023-02-17T07:16:09.304Z,32.10
2023-02-17T07:17:12.490Z,31.70
2023-02-17T07:18:15.396Z,32.50
2023-02-17T07:19:18.360Z,34.20
2023-02-17T07:20:21.288Z,33.80
2023-02-17T07:21:25.021Z,32.80
2023-02-17T07:22:27.960Z,31.80
2023-02-17T07:23:31.755Z,32.20
2023-02-17T07:24:34.705Z,31.80
2023-02-17T07:25:37.704Z,32.80
2023-02-17T07:26:41.483Z,31.20
2023-02-17T07:27:44.419Z,32.80
2023-02-17T07:28:47.399Z,31.10
2023-02-17T07:29:50.227Z,31.90
2023-02-17T07:30:53.099Z,31.50
2023-02-17T07:31:56.269Z,31.30
2023-02-17T07:32:59.137Z,30.80
2023-02-17T07:34:03.697Z,28.90
2023-02-17T07:35:06.717Z,30.50
2023-02-17T07:36:12.821Z,32.40
2023-02-17T07:37:16.102Z,27.80
2023-02-17T07:38:18.954Z,28.10
2023-02-17T07:39:21.843Z,29.80
2023-02-17T07:40:25.758Z,26.80
2023-02-17T07:41:28.773Z,29.60
2023-02-17T07:42:32.302Z,27.40
2023-02-17T07:43:35.780Z,29.40
2023-02-17T07:44:39.721Z,25.60
2023-02-17T07:45:42.723Z,23.40
2023-02-17T07:46:45.780Z,26.90
2023-02-17T07:47:48.934Z,25.50
2023-02-17T07:48:52.351Z,24.90
2023-02-17T07:49:56.030Z,25.30
2023-02-17T07:51:07.377Z,24.90
2023-02-17T07:52:10.637Z,22.60
2023-02-17T07:53:13.796Z,22.20
2023-02-17T07:54:17.365Z,23.30
2023-02-17T07:55:20.235Z,21.10
2023-02-17T07:56:24.270Z,20.10
2023-02-17T07:57:27.569Z,20.90
2023-02-17T07:58:35.047Z,21.70
2023-02-17T07:59:37.942Z,20.50
2023-02-17T08:00:40.844Z,22.90
2023-02-17T08:01:43.797Z,22.80
2023-02-17T08:02:47.053Z,21.80
2023-02-17T08:03:51.260Z,22.20
2023-02-17T08:04:54.118Z,22.80
2023-02-17T08:05:57.021Z,22.00
2023-02-17T08:07:00.056Z,21.60
2023-02-17T08:08:22.053Z,22.20
2023-02-17T08:09:43.804Z,24.30
2023-02-17T08:11:05.635Z,22.80
2023-02-17T08:12:35.932Z,20.70
2023-02-17T08:13:38.985Z,21.90
2023-02-17T08:14:41.990Z,22.90
2023-02-17T08:15:45.023Z,23.60
2023-02-17T08:16:47.985Z,22.80
2023-02-17T08:17:51.242Z,23.10
2023-02-17T08:18:55.619Z,25.80
2023-02-17T08:20:01.951Z,24.80
2023-02-17T08:21:07.102Z,21.70
2023-02-17T08:22:10.209Z,22.70
2023-02-17T08:23:13.182Z,21.40
2023-02-17T08:24:22.120Z,23.40
2023-02-17T08:25:25.628Z,21.30
2023-02-17T08:26:28.880Z,24.30
2023-02-17T08:27:32.309Z,21.10
2023-02-17T08:28:35.390Z,21.00
2023-02-17T08:29:38.321Z,21.10
2023-02-17T08:30:41.537Z,25.20
2023-02-17T08:31:44.960Z,21.90
2023-02-17T08:32:47.982Z,23.40
2023-02-17T08:33:52.017Z,22.50
2023-02-17T08:34:58.330Z,21.70
2023-02-17T08:36:07.580Z,21.50
2023-02-17T08:37:11.230Z,23.30
2023-02-17T08:38:15.407Z,21.80
2023-02-17T08:39:19.060Z,21.20
2023-02-17T08:40:22.162Z,22.40
2023-02-17T08:41:32.496Z,24.40
2023-02-17T08:42:35.525Z,23.00
2023-02-17T08:43:38.444Z,23.70
2023-02-17T08:44:41.764Z,25.30
2023-02-17T08:45:44.994Z,24.70
2023-02-17T08:46:49.837Z,24.40
2023-02-17T08:47:52.767Z,27.50
2023-02-17T08:48:56.588Z,23.70
2023-02-17T08:49:59.662Z,26.10
2023-02-17T08:51:03.380Z,25.80
2023-02-17T08:52:06.413Z,26.50
2023-02-17T08:53:09.291Z,27.20
2023-02-17T08:54:13.014Z,28.80
2023-02-17T08:55:19.129Z,27.10
2023-02-17T08:56:23.394Z,25.50
2023-02-17T08:57:27.193Z,26.10
2023-02-17T08:58:30.167Z,26.70
2023-02-17T08:59:33.138Z,27.80
2023-02-17T09:00:36.473Z,25.60
2023-02-17T09:01:40.532Z,25.50
2023-02-17T09:02:45.173Z,27.60
2023-02-17T09:03:49.996Z,27.00
2023-02-17T09:04:53.031Z,26.00
2023-02-17T09:05:57.938Z,26.10
2023-02-17T09:07:01.271Z,26.00
2023-02-17T09:08:04.457Z,27.10
2023-02-17T09:09:10.250Z,26.20
2023-02-17T09:10:13.695Z,25.60
2023-02-17T09:11:19.708Z,26.60
2023-02-17T09:12:22.618Z,26.80
2023-02-17T09:13:27.021Z,25.40
2023-02-17T09:14:30.085Z,27.50
2023-02-17T09:15:33.047Z,24.90
2023-02-17T09:16:37.064Z,25.90
2023-02-17T09:17:41.230Z,28.70
2023-02-17T09:18:44.634Z,26.20
2023-02-17T09:19:48.484Z,26.30
2023-02-17T09:20:51.918Z,30.30
2023-02-17T09:21:55.940Z,26.60
2023-02-17T09:22:59.511Z,27.40
2023-02-17T09:24:02.550Z,28.20
2023-02-17T09:25:06.012Z,27.10
2023-02-17T09:26:12.031Z,28.20
2023-02-17T09:27:15.194Z,28.50
2023-02-17T09:28:18.269Z,28.20
2023-02-17T09:29:21.171Z,28.20
2023-02-17T09:30:24.341Z,28.30
2023-02-17T09:31:29.190Z,29.80
2023-02-17T09:32:32.397Z,30.40
2023-02-17T09:33:35.759Z,27.70
2023-02-17T09:34:40.125Z,30.90
2023-02-17T09:35:44.581Z,28.80
2023-02-17T09:36:47.593Z,29.10
2023-02-17T09:37:50.802Z,30.40
2023-02-17T09:38:54.244Z,28.50
2023-02-17T09:39:57.158Z,31.10
2023-02-17T09:41:17.064Z,29.50
2023-02-17T09:42:24.551Z,29.40
2023-02-17T09:43:31.194Z,28.70
2023-02-17T09:44:51.961Z,28.30
2023-02-17T09:46:19.287Z,29.20
2023-02-17T09:47:29.916Z,28.70
2023-02-17T09:48:35.860Z,29.90
2023-02-17T09:49:44.858Z,30.40
2023-02-17T09:50:52.359Z,27.40
2023-02-17T09:52:19.473Z,29.50
2023-02-17T09:53:45.145Z,30.30
2023-02-17T09:54:57.493Z,28.90
2023-02-17T09:56:05.700Z,26.00
2023-02-17T09:57:19.850Z,29.50
2023-02-17T09:59:00.952Z,26.80
2023-02-17T10:00:10.794Z,28.20
2023-02-17T10:01:20.798Z,28.20
2023-02-17T10:02:41.626Z,28.50
2023-02-17T10:03:50.531Z,29.20
2023-02-17T10:04:56.453Z,27.00
2023-02-17T10:06:14.322Z,26.10
2023-02-17T10:07:33.123Z,29.70
2023-02-17T10:08:45.560Z,29.00
2023-02-17T10:09:59.061Z,27.50
2023-02-17T10:11:17.091Z,29.30
2023-02-17T10:12:30.367Z,28.40
2023-02-17T10:13:36.446Z,30.40
2023-02-17T10:14:55.367Z,28.90
2023-02-17T10:16:03.302Z,27.40
2023-02-17T10:17:13.546Z,33.80
2023-02-17T10:18:25.404Z,30.30
2023-02-17T10:19:33.788Z,32.60
2023-02-17T10:20:55.729Z,30.90
2023-02-17T10:22:19.829Z,29.20
2023-02-17T10:23:26.245Z,30.00
2023-02-17T10:24:29.369Z,31.80
2023-02-17T10:26:10.172Z,31.20
2023-02-17T10:27:19.599Z,32.50
2023-02-17T10:28:45.671Z,29.60
2023-02-17T10:30:13.350Z,30.50
2023-02-17T10:31:45.621Z,30.70
2023-02-17T10:33:13.243Z,30.30
2023-02-17T10:34:37.519Z,31.80
2023-02-17T10:35:57.874Z,30.70
2023-02-17T10:37:05.428Z,31.40
2023-02-17T10:38:17.790Z,32.30
2023-02-17T10:39:50.884Z,31.60
2023-02-17T10:40:56.318Z,32.20
2023-02-17T10:42:00.423Z,29.90
2023-02-17T10:43:07.759Z,31.50
2023-02-17T10:44:19.164Z,33.00
2023-02-17T10:45:38.368Z,32.40
2023-02-17T10:46:43.439Z,30.80
2023-02-17T10:47:47.082Z,33.10
2023-02-17T10:48:55.800Z,32.40
2023-02-17T10:50:01.395Z,31.80
2023-02-17T10:51:05.397Z,30.90
2023-02-17T10:52:19.146Z,32.40
2023-02-17T10:53:31.770Z,31.20
2023-02-17T10:55:11.330Z,31.70
2023-02-17T10:56:32.790Z,30.40
2023-02-17T10:59:12.425Z,31.80
2023-02-17T11:00:17.840Z,29.90
2023-02-17T11:01:23.340Z,26.20
2023-02-17T11:02:41.292Z,28.50
2023-02-17T11:03:44.438Z,29.50
2023-02-17T11:04:55.192Z,29.80
2023-02-17T11:05:59.447Z,27.90
2023-02-17T11:07:03.404Z,26.30
2023-02-17T11:08:20.940Z,27.80
2023-02-17T11:09:32.811Z,28.40
2023-02-17T11:10:40.269Z,30.20
2023-02-17T11:11:53.361Z,29.20
2023-02-17T11:12:58.740Z,25.60
2023-02-17T11:14:23.993Z,26.00
2023-02-17T11:15:32.225Z,25.20
2023-02-17T11:16:45.843Z,30.50
2023-02-17T11:17:49.461Z,25.90
2023-02-17T11:18:53.816Z,25.30
2023-02-17T11:20:05.076Z,23.90
2023-02-17T11:21:11.616Z,25.20
2023-02-17T11:22:32.047Z,24.80
2023-02-17T11:23:36.274Z,24.70
2023-02-17T11:24:39.207Z,25.50
2023-02-17T11:25:43.826Z,23.10
2023-02-17T11:27:06.000Z,23.00
2023-02-17T11:28:14.898Z,25.40
2023-02-17T11:29:22.435Z,25.60
2023-02-17T11:30:27.757Z,23.30
2023-02-17T11:31:31.853Z,24.30
2023-02-17T11:32:36.205Z,24.00
2023-02-17T11:33:40.553Z,26.20
2023-02-17T11:34:44.441Z,26.80
2023-02-17T11:35:54.498Z,26.30
2023-02-17T11:37:14.218Z,22.60
2023-02-17T11:38:23.599Z,25.10
2023-02-17T11:39:27.091Z,23.70
2023-02-17T11:40:32.558Z,24.40
2023-02-17T11:41:40.087Z,25.70
2023-02-17T11:42:43.309Z,25.40
2023-02-17T11:44:15.196Z,26.40
2023-02-17T11:45:23.178Z,23.70
2023-02-17T11:46:35.501Z,25.90
2023-02-17T11:47:53.495Z,27.90
2023-02-17T11:49:09.498Z,24.80
2023-02-17T11:50:35.303Z,27.20
2023-02-17T11:51:59.999Z,24.40
2023-02-17T11:53:26.870Z,27.00
2023-02-17T11:55:00.838Z,24.90
2023-02-17T11:56:18.047Z,23.90
2023-02-17T11:57:45.356Z,24.20
2023-02-17T11:59:14.486Z,25.40
2023-02-17T12:00:22.595Z,24.00
2023-02-17T12:01:44.604Z,22.90
2023-02-17T12:03:06.160Z,22.50
2023-02-17T12:04:26.760Z,22.30
2023-02-17T12:05:36.021Z,24.50
2023-02-17T12:07:04.580Z,23.50
2023-02-17T12:08:10.435Z,20.50
2023-02-17T12:09:27.359Z,21.70
2023-02-17T12:10:48.569Z,24.40
2023-02-17T12:11:59.428Z,21.50
2023-02-17T12:14:22.321Z,21.40
2023-02-17T12:15:28.504Z,21.70
2023-02-17T12:16:58.470Z,20.30
2023-02-17T12:18:20.856Z,19.90
2023-02-17T12:19:38.845Z,19.60
2023-02-17T12:21:06.135Z,19.90
2023-02-17T12:22:21.961Z,17.90
2023-02-17T12:23:36.348Z,18.70
2023-02-17T12:24:48.077Z,16.80
2023-02-17T12:25:57.326Z,17.30
2023-02-17T12:27:31.395Z,17.60
2023-02-17T12:28:49.884Z,17.80
2023-02-17T12:30:11.806Z,31.90
2023-02-17T12:31:14.802Z,17.10
2023-02-17T12:32:33.426Z,18.90
2023-02-17T12:33:52.192Z,17.70
2023-02-17T12:35:16.373Z,17.80
2023-02-17T12:36:21.035Z,17.90
2023-02-17T12:37:38.865Z,18.40
2023-02-17T12:38:46.867Z,15.30
2023-02-17T12:39:56.351Z,15.60
2023-02-17T12:41:17.523Z,15.90
2023-02-17T12:42:26.289Z,17.30
2023-02-17T12:43:36.546Z,16.00
2023-02-17T12:44:46.172Z,16.50
2023-02-17T12:45:51.346Z,15.80
2023-02-17T12:46:58.618Z,15.60
2023-02-17T12:48:07.420Z,16.30
2023-02-17T12:49:30.376Z,17.30
2023-02-17T12:50:36.687Z,17.60
2023-02-17T12:52:07.416Z,15.90
2023-02-17T12:54:26.621Z,17.30
2023-02-17T12:55:48.935Z,16.50
2023-02-17T12:57:10.350Z,14.90
2023-02-17T12:58:18.349Z,15.20
2023-02-17T12:59:46.211Z,16.30
2023-02-17T13:01:09.568Z,13.20
2023-02-17T13:02:15.449Z,15.40
2023-02-17T13:03:19.124Z,16.90
2023-02-17T13:04:24.985Z,15.10
2023-02-17T13:05:34.806Z,16.50
2023-02-17T13:06:43.237Z,15.20
2023-02-17T13:07:52.530Z,15.20
2023-02-17T13:09:22.766Z,14.60
2023-02-17T13:10:30.826Z,15.00
2023-02-17T13:11:36.169Z,17.30
2023-02-17T13:12:41.271Z,16.80
2023-02-17T13:13:44.465Z,15.10
2023-02-17T13:14:50.722Z,13.40
2023-02-17T13:16:08.042Z,13.10
2023-02-17T13:17:52.163Z,12.50
2023-02-17T13:18:55.466Z,13.00
2023-02-17T13:20:07.548Z,10.70
2023-02-17T13:21:27.476Z,12.80
2023-02-17T13:22:30.718Z,13.40
2023-02-17T13:23:41.135Z,12.50
2023-02-17T13:24:54.342Z,12.40
2023-02-17T13:26:27.339Z,12.90
2023-02-17T13:27:34.950Z,11.80
2023-02-17T13:28:40.545Z,14.20
2023-02-17T13:29:43.771Z,12.00
2023-02-17T13:30:48.795Z,12.20
2023-02-17T13:32:03.615Z,10.70
2023-02-17T13:33:26.584Z,12.10
2023-02-17T13:34:34.824Z,14.20
2023-02-17T13:35:37.818Z,12.20
2023-02-17T13:36:40.958Z,13.10
2023-02-17T13:37:46.057Z,11.90
2023-02-17T13:39:01.339Z,13.00
2023-02-17T13:40:16.614Z,11.90
2023-02-17T13:41:19.637Z,10.70
2023-02-17T13:42:44.303Z,10.90
2023-02-17T13:43:47.490Z,10.70
2023-02-17T13:44:51.433Z,10.80
2023-02-17T13:46:04.085Z,12.10
2023-02-17T13:47:18.350Z,11.80
2023-02-17T13:48:21.641Z,11.40
2023-02-17T13:49:27.811Z,11.10
2023-02-17T13:50:49.033Z,10.90
2023-02-17T13:51:52.066Z,11.00
2023-02-17T13:52:56.448Z,10.90
2023-02-17T13:54:09.526Z,11.20
2023-02-17T13:56:51.350Z,9.70
2023-02-17T13:59:18.517Z,9.60
2023-02-17T14:00:28.809Z,11.20
2023-02-17T14:01:31.856Z,10.20
2023-02-17T14:02:38.754Z,10.50
2023-02-17T14:03:47.051Z,10.30
2023-02-17T14:04:50.139Z,12.10
2023-02-17T14:05:59.127Z,12.60
2023-02-17T14:07:04.952Z,10.70
2023-02-17T14:08:21.287Z,10.30
2023-02-17T14:09:32.542Z,10.90
2023-02-17T14:10:36.551Z,9.10
2023-02-17T14:11:41.420Z,10.40
2023-02-17T14:12:44.892Z,8.50
2023-02-17T14:13:51.157Z,9.40
2023-02-17T14:14:54.485Z,10.40
2023-02-17T14:15:59.580Z,9.20
2023-02-17T14:17:27.041Z,9.50
2023-02-17T14:18:34.131Z,9.60
2023-02-17T14:19:46.773Z,8.10
2023-02-17T14:21:00.858Z,12.80
2023-02-17T14:22:05.563Z,9.60
2023-02-17T14:23:12.946Z,8.40
2023-02-17T14:24:37.201Z,8.50
2023-02-17T14:25:47.080Z,8.20
2023-02-17T14:26:50.358Z,7.20
2023-02-17T14:27:53.430Z,8.00
2023-02-17T14:29:02.796Z,8.10
2023-02-17T14:30:06.750Z,7.00
2023-02-17T14:31:20.402Z,9.00
2023-02-17T14:32:32.737Z,7.80
2023-02-17T14:33:35.968Z,6.90
2023-02-17T14:34:38.859Z,7.50
2023-02-17T14:35:58.431Z,7.90
2023-02-17T14:37:21.117Z,6.90
2023-02-17T14:38:37.502Z,7.50
2023-02-17T14:39:40.865Z,6.50